Time;durP1;ratioP1;P1;durP2;ratioP2;P2;SDS_P1;SDS_P2;PMS_P1;PMS_P2;Temp;Humidity;BMP_temperature;BMP_pressure;BME280_temperature;BME280_humidity;BME280_pressure;Samples;Min_cycle;Max_cycle;Signal;HPM_P1;HPM_P2
2024/03/21 00:02:01;;;;;;;;;;;;;;;;;;4966888;28;89523;-75
2024/03/21 00:04:27;;;;;;;;;;;;;;;;;;4966934;28;90213;-76
2024/03/21 00:06:52;;;;;;;;;;;;;;;;;;4970515;28;89675;-76
2024/03/21 00:09:17;;;;;;;;;;;;;;;;;;4967038;28;89596;-76
2024/03/21 00:11:42;;;;;;;;;;;;;;;;;;4968497;28;89704;-76
2024/03/21 00:14:08;;;;;;;;;;;;;;;;;;4969992;28;89498;-76
2024/03/21 00:16:33;;;;;;;;;;;;;;;;;;4970194;28;89606;-76
2024/03/21 00:18:59;;;;;;;;;;;;;;;;;;4966573;28;89312;-76
2024/03/21 00:21:24;;;;;;;;;;;;;;;;;;4966205;28;89002;-75
2024/03/21 00:23:50;;;;;;;;;;;;;;;;;;4966085;28;90176;-76
2024/03/21 00:26:15;;;;;;;;;;;;;;;;;;4965860;28;89627;-76
2024/03/21 00:28:41;;;;;;;;;;;;;;;;;;4971166;28;89411;-76
2024/03/21 00:31:06;;;;;;;;;;;;;;;;;;4966159;28;89465;-75
2024/03/21 00:33:31;;;;;;;;;;;;;;;;;;4966326;28;89045;-76
2024/03/21 00:35:57;;;;;;;;;;;;;;;;;;4965897;28;90047;-75
2024/03/21 00:38:22;;;;;;;;;;;;;;;;;;4963976;28;92644;-75
2024/03/21 00:40:47;;;;;;;;;;;;;;;;;;4966076;28;89596;-76
2024/03/21 00:43:12;;;;;;;;;;;;;;;;;;4966745;28;89742;-76
2024/03/21 00:45:37;;;;;;;;;;;;;;;;;;4966420;28;89814;-75
2024/03/21 00:48:03;;;;;;;;;;;;;;;;;;4967062;28;89494;-76
2024/03/21 00:50:31;;;;;;;;;;;;;;;;;;4968123;28;92329;-75
2024/03/21 00:52:56;;;;;;;;;;;;;;;;;;4967691;28;89320;-76
2024/03/21 00:55:22;;;;;;;;;;;;;;;;;;4968027;28;90218;-75
2024/03/21 00:57:47;;;;;;;;;;;;;;;;;;4966706;28;89664;-75
2024/03/21 01:00:13;;;;;;;;;;;;;;;;;;4968129;28;89296;-76
2024/03/21 01:02:39;;;;;;;;;;;;;;;;;;4967434;28;89571;-76
2024/03/21 01:05:06;;;;;;;;;;;;;;;;;;4968523;28;89604;-75
2024/03/21 01:07:31;;;;;;;;;;;;;;;;;;4970185;28;89263;-75
2024/03/21 01:09:56;;;;;;;;;;;;;;;;;;4969837;28;89077;-75
2024/03/21 01:12:22;;;;;;;;;;;;;;;;;;4969819;28;89250;-76
2024/03/21 01:14:47;;;;;;;;;;;;;;;;;;4966300;28;89743;-76
2024/03/21 01:17:12;;;;;;;;;;;;;;;;;;4965535;28;89092;-76
2024/03/21 01:19:39;;;;;;;;;;;;;;;;;;4965558;28;89610;-76
2024/03/21 01:22:04;;;;;;;;;;;;;;;;;;4963633;28;92387;-76
2024/03/21 01:24:29;;;;;;;;;;;;;;;;;;4965017;28;90646;-76
2024/03/21 01:26:54;;;;;;;;;;;;;;;;;;4964850;28;89521;-76
2024/03/21 01:29:20;;;;;;;;;;;;;;;;;;4945659;28;90006;-75
2024/03/21 01:31:45;;;;;;;;;;;;;;;;;;4945956;28;89772;-75
2024/03/21 01:34:10;;;;;;;;;;;;;;;;;;4948594;28;89433;-77
2024/03/21 01:36:45;;;;;;;;;;;;;;;;;;4945033;28;90871;-75
2024/03/21 01:39:11;;;;;;;;;;;;;;;;;;4967474;28;90200;-76
2024/03/21 01:41:36;;;;;;;;;;;;;;;;;;4991130;28;90230;-76
2024/03/21 01:44:01;;;;;;;;;;;;;;;;;;4991668;28;89890;-76
2024/03/21 01:46:26;;;;;;;;;;;;;;;;;;4992399;28;89780;-76
2024/03/21 01:48:52;;;;;;;;;;;;;;;;;;4992411;28;89599;-77
2024/03/21 01:51:24;;;;;;;;;;;;;;;;;;4972012;28;89340;-75
2024/03/21 01:53:51;;;;;;;;;;;;;;;;;;4970232;28;89135;-76
2024/03/21 01:56:16;;;;;;;;;;;;;;;;;;4967624;28;90210;-75
2024/03/21 01:58:42;;;;;;;;;;;;;;;;;;4967534;28;89521;-75
2024/03/21 02:01:36;;;;;;;;;;;;;;;;;;4967791;28;89636;-76
2024/03/21 02:04:04;;;;;;;;;;;;;;;;;;4962950;28;89395;-75
2024/03/21 02:06:31;;;;;;;;;;;;;;;;;;4967378;28;89077;-75
2024/03/21 02:08:58;;;;;;;;;;;;;;;;;;4968716;28;89674;-75
2024/03/21 02:11:24;;;;;;;;;;;;;;;;;;4966942;28;92342;-75
2024/03/21 02:13:50;;;;;;;;;;;;;;;;;;4967184;28;89468;-76
2024/03/21 02:16:15;;;;;;;;;;;;;;;;;;4970968;28;90239;-75
2024/03/21 02:18:41;;;;;;;;;;;;;;;;;;4984726;28;90461;-75
2024/03/21 02:23:51;;;;;;;;;;;;;;;;;;4948240;28;89426;-75
2024/03/21 02:26:16;;;;;;;;;;;;;;;;;;4948504;28;89537;-76
2024/03/21 02:28:41;;;;;;;;;;;;;;;;;;4948534;28;90147;-75
2024/03/21 02:31:06;;;;;;;;;;;;;;;;;;4948840;28;89549;-75
2024/03/21 02:33:31;;;;;;;;;;;;;;;;;;4947184;28;89528;-76
2024/03/21 02:35:57;;;;;;;;;;;;;;;;;;4948950;28;89673;-75
2024/03/21 02:38:22;;;;;;;;;;;;;;;;;;4951272;28;89743;-75
2024/03/21 02:40:47;;;;;;;;;;;;;;;;;;4947995;28;89644;-75
2024/03/21 02:43:12;;;;;;;;;;;;;;;;;;4948182;28;89508;-75
2024/03/21 02:45:37;;;;;;;;;;;;;;;;;;4949174;28;90418;-76
2024/03/21 02:48:03;;;;;;;;;;;;;;;;;;4948686;28;89304;-77
2024/03/21 02:50:28;;;;;;;;;;;;;;;;;;4949455;28;90773;-76
2024/03/21 02:52:53;;;;;;;;;;;;;;;;;;4949511;28;90028;-77
2024/03/21 02:55:18;;;;;;;;;;;;;;;;;;4948934;28;90668;-75
2024/03/21 02:57:44;;;;;;;;;;;;;;;;;;4950712;28;90554;-75
2024/03/21 03:00:09;;;;;;;;;;;;;;;;;;4968711;28;90145;-76
2024/03/21 03:02:36;;;;;;;;;;;;;;;;;;4952031;28;89583;-75
2024/03/21 03:05:01;;;;;;;;;;;;;;;;;;4951827;28;89497;-75
2024/03/21 03:07:27;;;;;;;;;;;;;;;;;;4951894;28;90350;-76
2024/03/21 03:09:52;;;;;;;;;;;;;;;;;;4952484;28;89156;-76
2024/03/21 03:12:17;;;;;;;;;;;;;;;;;;4951204;28;90248;-76
2024/03/21 03:14:42;;;;;;;;;;;;;;;;;;4953455;28;90064;-75
2024/03/21 03:17:07;;;;;;;;;;;;;;;;;;4953025;28;89577;-76
2024/03/21 03:19:32;;;;;;;;;;;;;;;;;;4952591;28;89063;-76
2024/03/21 03:21:58;;;;;;;;;;;;;;;;;;4955752;28;89510;-76
2024/03/21 03:24:23;;;;;;;;;;;;;;;;;;4950609;28;89100;-76
2024/03/21 03:26:48;;;;;;;;;;;;;;;;;;4946316;28;91483;-76
2024/03/21 03:29:13;;;;;;;;;;;;;;;;;;4946787;28;91443;-76
2024/03/21 03:31:41;;;;;;;;;;;;;;;;;;4947683;28;88981;-75
2024/03/21 03:36:49;;;;;;;;;;;;;;;;;;4986712;28;89613;-76
2024/03/21 03:39:15;;;;;;;;;;;;;;;;;;4984143;28;90194;-75
2024/03/21 03:41:40;;;;;;;;;;;;;;;;;;4986107;28;89948;-76
2024/03/21 03:44:05;;;;;;;;;;;;;;;;;;4982795;28;89726;-76
2024/03/21 03:46:30;;;;;;;;;;;;;;;;;;4965855;28;89558;-75
2024/03/21 03:48:56;;;;;;;;;;;;;;;;;;4965413;28;89604;-75
2024/03/21 03:51:21;;;;;;;;;;;;;;;;;;4965502;28;89681;-76
2024/03/21 03:53:46;;;;;;;;;;;;;;;;;;4965070;28;89794;-75
2024/03/21 03:56:12;;;;;;;;;;;;;;;;;;4965656;28;90510;-76
2024/03/21 03:58:37;;;;;;;;;;;;;;;;;;4966415;28;89801;-75
2024/03/21 04:01:02;;;;;;;;;;;;;;;;;;4965219;28;89903;-75
2024/03/21 04:03:28;;;;;;;;;;;;;;;;;;4968792;28;89324;-76
2024/03/21 04:05:57;;;;;;;;;;;;;;;;;;4965900;28;89782;-76
2024/03/21 04:08:22;;;;;;;;;;;;;;;;;;4965411;28;89720;-75
2024/03/21 04:10:47;;;;;;;;;;;;;;;;;;4965855;28;89903;-76
2024/03/21 04:13:13;;;;;;;;;;;;;;;;;;4965435;28;90600;-75
2024/03/21 04:15:38;;;;;;;;;;;;;;;;;;4965308;28;89201;-74
2024/03/21 04:18:03;;;;;;;;;;;;;;;;;;4963621;28;91445;-75
2024/03/21 04:20:28;;;;;;;;;;;;;;;;;;4965627;28;89691;-75
2024/03/21 04:22:53;;;;;;;;;;;;;;;;;;4964014;28;90853;-75
2024/03/21 04:25:19;;;;;;;;;;;;;;;;;;4967101;28;89611;-75
2024/03/21 04:27:44;;;;;;;;;;;;;;;;;;4965988;28;89377;-76
2024/03/21 04:30:09;;;;;;;;;;;;;;;;;;4966281;28;89236;-75
2024/03/21 04:32:35;;;;;;;;;;;;;;;;;;4966320;28;89757;-76
2024/03/21 04:35:00;;;;;;;;;;;;;;;;;;4966560;28;90582;-76
2024/03/21 04:37:25;;;;;;;;;;;;;;;;;;4967010;28;89478;-75
2024/03/21 04:39:50;;;;;;;;;;;;;;;;;;4967070;28;89748;-75
2024/03/21 04:42:16;;;;;;;;;;;;;;;;;;4966735;28;90514;-76
2024/03/21 04:44:44;;;;;;;;;;;;;;;;;;4967706;28;89393;-76
2024/03/21 04:47:09;;;;;;;;;;;;;;;;;;4970036;28;92861;-75
2024/03/21 04:49:35;;;;;;;;;;;;;;;;;;4969109;28;89453;-76
2024/03/21 04:52:00;;;;;;;;;;;;;;;;;;4968235;28;91539;-75
2024/03/21 04:54:25;;;;;;;;;;;;;;;;;;4971043;28;89626;-77
2024/03/21 04:56:51;;;;;;;;;;;;;;;;;;4970087;28;90369;-76
2024/03/21 04:59:16;;;;;;;;;;;;;;;;;;4966851;28;91317;-76
2024/03/21 05:01:41;;;;;;;;;;;;;;;;;;4966445;28;89698;-75
2024/03/21 05:04:07;;;;;;;;;;;;;;;;;;4967205;28;89538;-75
2024/03/21 05:06:32;;;;;;;;;;;;;;;;;;4967612;28;90909;-75
2024/03/21 05:08:57;;;;;;;;;;;;;;;;;;4971242;28;89647;-77
2024/03/21 05:11:22;;;;;;;;;;;;;;;;;;4969474;28;92242;-77
2024/03/21 05:13:50;;;;;;;;;;;;;;;;;;4972109;28;90106;-75
2024/03/21 05:16:15;;;;;;;;;;;;;;;;;;4971640;28;90374;-76
2024/03/21 05:18:40;;;;;;;;;;;;;;;;;;4973657;28;90096;-75
2024/03/21 05:21:05;;;;;;;;;;;;;;;;;;4972820;28;91060;-75
2024/03/21 05:23:31;;;;;;;;;;;;;;;;;;4973064;28;89981;-76
2024/03/21 05:25:56;;;;;;;;;;;;;;;;;;4971203;28;90088;-75
2024/03/21 05:28:21;;;;;;;;;;;;;;;;;;4970171;28;90748;-75
2024/03/21 05:30:47;;;;;;;;;;;;;;;;;;4973174;28;90258;-75
2024/03/21 05:33:12;;;;;;;;;;;;;;;;;;4969622;28;89642;-75
2024/03/21 05:35:37;;;;;;;;;;;;;;;;;;4968534;28;89348;-76
2024/03/21 05:38:03;;;;;;;;;;;;;;;;;;4979654;28;89721;-77
2024/03/21 05:40:28;;;;;;;;;;;;;;;;;;4987608;28;89831;-76
2024/03/21 05:42:53;;;;;;;;;;;;;;;;;;4987056;28;89553;-76
2024/03/21 05:45:18;;;;;;;;;;;;;;;;;;4985172;28;89752;-76
2024/03/21 05:47:44;;;;;;;;;;;;;;;;;;4967814;28;89702;-76
2024/03/21 05:50:09;;;;;;;;;;;;;;;;;;4966280;28;89507;-77
2024/03/21 05:52:34;;;;;;;;;;;;;;;;;;4969907;28;89222;-75
2024/03/21 05:55:01;;;;;;;;;;;;;;;;;;4967507;28;89444;-76
2024/03/21 05:57:26;;;;;;;;;;;;;;;;;;4966549;28;92328;-77
2024/03/21 05:59:54;;;;;;;;;;;;;;;;;;4967841;28;89806;-76
2024/03/21 06:02:20;;;;;;;;;;;;;;;;;;4967359;28;89393;-76
2024/03/21 06:04:45;;;;;;;;;;;;;;;;;;4967687;28;89144;-75
2024/03/21 06:07:10;;;;;;;;;;;;;;;;;;4967966;28;89632;-75
2024/03/21 06:09:35;;;;;;;;;;;;;;;;;;4967702;28;89490;-76
2024/03/21 06:12:01;;;;;;;;;;;;;;;;;;4971028;28;90019;-75
2024/03/21 06:14:26;;;;;;;;;;;;;;;;;;4968812;28;89613;-75
2024/03/21 06:16:51;;;;;;;;;;;;;;;;;;4968526;28;91095;-75
2024/03/21 06:19:16;;;;;;;;;;;;;;;;;;4969079;28;89506;-75
2024/03/21 06:21:42;;;;;;;;;;;;;;;;;;4969569;28;89824;-75
2024/03/21 06:24:07;;;;;;;;;;;;;;;;;;4969100;28;89608;-75
2024/03/21 06:26:32;;;;;;;;;;;;;;;;;;4970126;28;89541;-75
2024/03/21 06:28:57;;;;;;;;;;;;;;;;;;4971483;28;89104;-76
2024/03/21 06:31:22;;;;;;;;;;;;;;;;;;4971651;28;90021;-75
2024/03/21 06:33:48;;;;;;;;;;;;;;;;;;4970158;28;89488;-75
2024/03/21 06:36:13;;;;;;;;;;;;;;;;;;4967920;28;89566;-76
2024/03/21 06:38:38;;;;;;;;;;;;;;;;;;4967208;28;89369;-75
2024/03/21 06:41:03;;;;;;;;;;;;;;;;;;4967471;28;89324;-75
2024/03/21 06:43:29;;;;;;;;;;;;;;;;;;4966697;28;89702;-75
2024/03/21 06:45:54;;;;;;;;;;;;;;;;;;4967609;28;89792;-75
2024/03/21 06:48:19;;;;;;;;;;;;;;;;;;4999714;28;90163;-75
2024/03/21 06:50:45;;;;;;;;;;;;;;;;;;4967983;28;89341;-76
2024/03/21 06:53:10;;;;;;;;;;;;;;;;;;4968031;28;91217;-75
2024/03/21 06:55:35;;;;;;;;;;;;;;;;;;4970402;28;89400;-76
2024/03/21 06:58:00;;;;;;;;;;;;;;;;;;4967687;28;89384;-76
2024/03/21 07:00:27;;;;;;;;;;;;;;;;;;4968405;28;89040;-75
2024/03/21 07:02:52;;;;;;;;;;;;;;;;;;4968086;28;89701;-75
2024/03/21 07:05:18;;;;;;;;;;;;;;;;;;4966905;28;91805;-76
2024/03/21 07:07:43;;;;;;;;;;;;;;;;;;4968476;28;89695;-77
2024/03/21 07:10:09;;;;;;;;;;;;;;;;;;4968768;28;90782;-75
2024/03/21 07:12:35;;;;;;;;;;;;;;;;;;4969784;28;89583;-75
2024/03/21 07:15:02;;;;;;;;;;;;;;;;;;4970488;28;89133;-75
2024/03/21 07:17:27;;;;;;;;;;;;;;;;;;4974172;28;89652;-75
2024/03/21 07:19:52;;;;;;;;;;;;;;;;;;4971837;28;89100;-75
2024/03/21 07:22:18;;;;;;;;;;;;;;;;;;5003634;28;92319;-76
2024/03/21 07:24:43;;;;;;;;;;;;;;;;;;4971674;28;89319;-75
2024/03/21 07:27:08;;;;;;;;;;;;;;;;;;4970833;28;89369;-74
2024/03/21 07:29:33;;;;;;;;;;;;;;;;;;4969444;28;89514;-76
2024/03/21 07:31:59;;;;;;;;;;;;;;;;;;4968881;28;89415;-75
2024/03/21 07:34:25;;;;;;;;;;;;;;;;;;4966141;28;89467;-75
2024/03/21 07:36:50;;;;;;;;;;;;;;;;;;4966107;28;89611;-74
2024/03/21 07:39:18;;;;;;;;;;;;;;;;;;4969813;28;89742;-74
2024/03/21 07:41:43;;;;;;;;;;;;;;;;;;4967237;28;89631;-75
2024/03/21 07:44:09;;;;;;;;;;;;;;;;;;4975436;28;89551;-75
2024/03/21 07:46:34;;;;;;;;;;;;;;;;;;4987291;28;89447;-74
2024/03/21 07:49:01;;;;;;;;;;;;;;;;;;4987715;28;89746;-75
2024/03/21 07:51:26;;;;;;;;;;;;;;;;;;4979936;28;91837;-75
2024/03/21 07:53:55;;;;;;;;;;;;;;;;;;4968593;28;89413;-77
2024/03/21 07:56:20;;;;;;;;;;;;;;;;;;4968763;28;89693;-77
2024/03/21 07:58:45;;;;;;;;;;;;;;;;;;4972172;28;89533;-76
2024/03/21 08:01:10;;;;;;;;;;;;;;;;;;4970068;28;89869;-76
2024/03/21 08:03:35;;;;;;;;;;;;;;;;;;4971372;28;89667;-76
2024/03/21 08:06:01;;;;;;;;;;;;;;;;;;4967123;28;89434;-76
2024/03/21 08:08:26;;;;;;;;;;;;;;;;;;4965466;28;90129;-76
2024/03/21 08:10:51;;;;;;;;;;;;;;;;;;4965312;28;89776;-76
2024/03/21 08:13:16;;;;;;;;;;;;;;;;;;4965658;28;89682;-75
2024/03/21 08:15:42;;;;;;;;;;;;;;;;;;4997085;28;90887;-74
2024/03/21 08:18:07;;;;;;;;;;;;;;;;;;4965042;28;89623;-75
2024/03/21 08:20:32;;;;;;;;;;;;;;;;;;4967549;28;89333;-76
2024/03/21 08:22:58;;;;;;;;;;;;;;;;;;4996532;28;91960;-75
2024/03/21 08:25:23;;;;;;;;;;;;;;;;;;4965413;28;89244;-74
2024/03/21 08:27:48;;;;;;;;;;;;;;;;;;4965605;28;89907;-75
2024/03/21 08:30:13;;;;;;;;;;;;;;;;;;4965124;28;89340;-74
2024/03/21 08:32:39;;;;;;;;;;;;;;;;;;4965174;28;89993;-74
2024/03/21 08:35:05;;;;;;;;;;;;;;;;;;4996800;28;91006;-75
2024/03/21 08:37:30;;;;;;;;;;;;;;;;;;4965636;28;90493;-76
2024/03/21 08:39:57;;;;;;;;;;;;;;;;;;4997916;28;90499;-76
2024/03/21 08:42:22;;;;;;;;;;;;;;;;;;5000303;28;92300;-76
2024/03/21 08:44:48;;;;;;;;;;;;;;;;;;4965544;28;89179;-75
2024/03/21 08:47:13;;;;;;;;;;;;;;;;;;4964948;28;89845;-76
2024/03/21 08:49:38;;;;;;;;;;;;;;;;;;4965386;28;90497;-75
2024/03/21 08:52:03;;;;;;;;;;;;;;;;;;4965722;28;89085;-77
2024/03/21 08:54:29;;;;;;;;;;;;;;;;;;4997300;28;92199;-76
2024/03/21 08:56:55;;;;;;;;;;;;;;;;;;4965728;28;89794;-76
2024/03/21 08:59:20;;;;;;;;;;;;;;;;;;4998056;28;90660;-77
2024/03/21 09:01:46;;;;;;;;;;;;;;;;;;4966803;28;90122;-76
2024/03/21 09:04:11;;;;;;;;;;;;;;;;;;4969324;28;89736;-75
2024/03/21 09:06:39;;;;;;;;;;;;;;;;;;4966111;28;90038;-75
2024/03/21 09:09:05;;;;;;;;;;;;;;;;;;4997542;28;92162;-74
2024/03/21 09:11:32;;;;;;;;;;;;;;;;;;4966853;28;89687;-75
2024/03/21 09:13:57;;;;;;;;;;;;;;;;;;4966146;28;89500;-76
2024/03/21 09:16:23;;;;;;;;;;;;;;;;;;4966702;28;90174;-75
2024/03/21 09:18:48;;;;;;;;;;;;;;;;;;4967929;28;89754;-74
2024/03/21 09:21:13;;;;;;;;;;;;;;;;;;4968408;28;89890;-75
2024/03/21 09:23:39;;;;;;;;;;;;;;;;;;4969046;28;89537;-75
2024/03/21 09:26:04;;;;;;;;;;;;;;;;;;4974468;28;89489;-77
2024/03/21 09:28:29;;;;;;;;;;;;;;;;;;4971302;28;89339;-76
2024/03/21 09:30:54;;;;;;;;;;;;;;;;;;4970793;28;89446;-75
2024/03/21 09:33:19;;;;;;;;;;;;;;;;;;4971154;28;89700;-79
2024/03/21 09:35:54;;;;;;;;;;;;;;;;;;4983093;28;89419;-76
2024/03/21 09:38:20;;;;;;;;;;;;;;;;;;4988102;28;89765;-75
2024/03/21 09:40:46;;;;;;;;;;;;;;;;;;4983547;28;91460;-75
2024/03/21 09:43:11;;;;;;;;;;;;;;;;;;4983801;28;90222;-75
2024/03/21 09:45:38;;;;;;;;;;;;;;;;;;4982585;28;90620;-77
2024/03/21 09:48:03;;;;;;;;;;;;;;;;;;4985068;28;91214;-77
2024/03/21 09:50:29;;;;;;;;;;;;;;;;;;4965961;28;89614;-76
2024/03/21 09:52:54;;;;;;;;;;;;;;;;;;4963653;28;90018;-77
2024/03/21 09:55:20;;;;;;;;;;;;;;;;;;4964277;28;90089;-76
2024/03/21 09:57:45;;;;;;;;;;;;;;;;;;4963516;28;89247;-76
2024/03/21 10:00:12;;;;;;;;;;;;;;;;;;4967349;28;90127;-76
2024/03/21 10:02:37;;;;;;;;;;;;;;;;;;4967229;28;89710;-76
2024/03/21 10:05:05;;;;;;;;;;;;;;;;;;4966791;28;89420;-76
2024/03/21 10:07:31;;;;;;;;;;;;;;;;;;4970012;28;90074;-76
2024/03/21 10:09:58;;;;;;;;;;;;;;;;;;4967287;28;90114;-77
2024/03/21 10:12:24;;;;;;;;;;;;;;;;;;4966723;28;89890;-76
2024/03/21 10:14:55;;;;;;;;;;;;;;;;;;4962943;28;91602;-77
2024/03/21 10:17:20;;;;;;;;;;;;;;;;;;4947834;28;89429;-76
2024/03/21 10:19:45;;;;;;;;;;;;;;;;;;4947746;28;90052;-76
2024/03/21 10:22:21;;;;;;;;;;;;;;;;;;4946925;28;89657;-75
2024/03/21 10:24:53;;;;;;;;;;;;;;;;;;4947937;28;89065;-75
2024/03/21 10:27:19;;;;;;;;;;;;;;;;;;4947720;28;89650;-76
2024/03/21 10:29:45;;;;;;;;;;;;;;;;;;4950647;28;90935;-77
2024/03/21 10:32:16;;;;;;;;;;;;;;;;;;4947801;28;90059;-76
2024/03/21 10:34:45;;;;;;;;;;;;;;;;;;4947574;28;90582;-76
2024/03/21 10:37:10;;;;;;;;;;;;;;;;;;4947000;28;89299;-76
2024/03/21 10:39:35;;;;;;;;;;;;;;;;;;4947209;28;89874;-75
2024/03/21 10:42:02;;;;;;;;;;;;;;;;;;4947168;28;90417;-75
2024/03/21 10:44:28;;;;;;;;;;;;;;;;;;4946557;28;90022;-76
2024/03/21 10:46:57;;;;;;;;;;;;;;;;;;4946553;28;90164;-76
2024/03/21 10:49:22;;;;;;;;;;;;;;;;;;4946627;28;89162;-76
2024/03/21 10:51:48;;;;;;;;;;;;;;;;;;4949432;28;89517;-76
2024/03/21 10:54:15;;;;;;;;;;;;;;;;;;4946343;28;90049;-76
2024/03/21 10:56:41;;;;;;;;;;;;;;;;;;4946941;28;89384;-76
2024/03/21 10:59:13;;;;;;;;;;;;;;;;;;4947383;28;89625;-76
2024/03/21 11:01:39;;;;;;;;;;;;;;;;;;4947675;28;89696;-76
2024/03/21 11:04:05;;;;;;;;;;;;;;;;;;4929959;28;89738;-75
2024/03/21 11:06:31;;;;;;;;;;;;;;;;;;4947070;28;89776;-75
2024/03/21 11:08:57;;;;;;;;;;;;;;;;;;4945883;28;89221;-75
2024/03/21 11:11:22;;;;;;;;;;;;;;;;;;4944951;28;92006;-75
2024/03/21 11:13:47;;;;;;;;;;;;;;;;;;4949639;28;90347;-75
2024/03/21 11:16:12;;;;;;;;;;;;;;;;;;4944703;28;89614;-75
2024/03/21 11:18:39;;;;;;;;;;;;;;;;;;4946101;28;90484;-76
2024/03/21 11:21:05;;;;;;;;;;;;;;;;;;4946410;28;89457;-76
2024/03/21 11:23:30;;;;;;;;;;;;;;;;;;4946816;28;89794;-75
2024/03/21 11:25:55;;;;;;;;;;;;;;;;;;4945322;28;92311;-75
2024/03/21 11:28:21;;;;;;;;;;;;;;;;;;4946964;28;89758;-75
2024/03/21 11:30:46;;;;;;;;;;;;;;;;;;4946205;28;89653;-76
2024/03/21 11:33:11;;;;;;;;;;;;;;;;;;4976627;28;89984;-76
2024/03/21 11:35:40;;;;;;;;;;;;;;;;;;4987606;28;89351;-76
2024/03/21 11:38:09;;;;;;;;;;;;;;;;;;4985359;28;90399;-77
2024/03/21 11:40:35;;;;;;;;;;;;;;;;;;4985714;28;90328;-76
2024/03/21 11:43:07;;;;;;;;;;;;;;;;;;4983990;28;90126;-76
2024/03/21 11:45:35;;;;;;;;;;;;;;;;;;4968669;28;89785;-75
2024/03/21 11:48:13;;;;;;;;;;;;;;;;;;4965628;28;89286;-77
2024/03/21 11:50:38;;;;;;;;;;;;;;;;;;4965768;28;89569;-76
2024/03/21 11:53:04;;;;;;;;;;;;;;;;;;4965934;28;89811;-77
2024/03/21 11:55:29;;;;;;;;;;;;;;;;;;4964159;28;91956;-76
2024/03/21 11:57:55;;;;;;;;;;;;;;;;;;4968757;28;89042;-76
2024/03/21 12:00:20;;;;;;;;;;;;;;;;;;4965186;28;89710;-76
2024/03/21 12:02:47;;;;;;;;;;;;;;;;;;4965570;28;89518;-76
2024/03/21 12:05:13;;;;;;;;;;;;;;;;;;4965577;28;89654;-76
2024/03/21 12:07:41;;;;;;;;;;;;;;;;;;4963906;28;90399;-76
2024/03/21 12:10:07;;;;;;;;;;;;;;;;;;4964481;28;89864;-76
2024/03/21 12:12:32;;;;;;;;;;;;;;;;;;4965619;28;89679;-77
2024/03/21 12:14:58;;;;;;;;;;;;;;;;;;4964945;28;89775;-76
2024/03/21 12:17:23;;;;;;;;;;;;;;;;;;4968556;28;89047;-76
2024/03/21 12:19:48;;;;;;;;;;;;;;;;;;4965601;28;89824;-76
2024/03/21 12:22:13;;;;;;;;;;;;;;;;;;4965176;28;89619;-77
2024/03/21 12:24:40;;;;;;;;;;;;;;;;;;4964794;28;90897;-76
2024/03/21 12:27:05;;;;;;;;;;;;;;;;;;4965050;28;89574;-77
2024/03/21 12:29:30;;;;;;;;;;;;;;;;;;4964723;28;89118;-77
2024/03/21 12:31:55;;;;;;;;;;;;;;;;;;4964678;28;89604;-75
2024/03/21 12:34:21;;;;;;;;;;;;;;;;;;4964763;28;89365;-76
2024/03/21 12:36:46;;;;;;;;;;;;;;;;;;4965048;28;89114;-75
2024/03/21 12:39:14;;;;;;;;;;;;;;;;;;4967558;28;90248;-76
2024/03/21 12:41:40;;;;;;;;;;;;;;;;;;4965247;28;89377;-75
2024/03/21 12:44:05;;;;;;;;;;;;;;;;;;4962800;28;93128;-75
2024/03/21 12:46:30;;;;;;;;;;;;;;;;;;4965025;28;89509;-76
2024/03/21 12:48:55;;;;;;;;;;;;;;;;;;4996841;28;89925;-75
2024/03/21 12:51:20;;;;;;;;;;;;;;;;;;4965103;28;90416;-76
2024/03/21 12:53:46;;;;;;;;;;;;;;;;;;4965308;28;89102;-75
2024/03/21 12:56:12;;;;;;;;;;;;;;;;;;4965197;28;89055;-77
2024/03/21 12:58:37;;;;;;;;;;;;;;;;;;4965005;28;90261;-76
2024/03/21 13:01:03;;;;;;;;;;;;;;;;;;4967583;28;89384;-75
2024/03/21 13:03:28;;;;;;;;;;;;;;;;;;4965001;28;89738;-76
2024/03/21 13:05:53;;;;;;;;;;;;;;;;;;4996502;28;90811;-76
2024/03/21 13:08:18;;;;;;;;;;;;;;;;;;4964322;28;89692;-75
2024/03/21 13:10:43;;;;;;;;;;;;;;;;;;4964022;28;90520;-76
2024/03/21 13:13:09;;;;;;;;;;;;;;;;;;4963407;28;90120;-76
2024/03/21 13:15:34;;;;;;;;;;;;;;;;;;4964423;28;89476;-76
2024/03/21 13:17:59;;;;;;;;;;;;;;;;;;4964710;28;89846;-76
2024/03/21 13:20:26;;;;;;;;;;;;;;;;;;4964333;28;89233;-75
2024/03/21 13:22:51;;;;;;;;;;;;;;;;;;4967650;28;89350;-76
2024/03/21 13:25:19;;;;;;;;;;;;;;;;;;4964475;28;90390;-75
2024/03/21 13:27:44;;;;;;;;;;;;;;;;;;4964245;28;89294;-76
2024/03/21 13:30:10;;;;;;;;;;;;;;;;;;4964573;28;90059;-77
2024/03/21 13:32:35;;;;;;;;;;;;;;;;;;4964200;28;91367;-76
2024/03/21 13:35:00;;;;;;;;;;;;;;;;;;4967447;28;89455;-76
2024/03/21 13:37:26;;;;;;;;;;;;;;;;;;4966683;28;89640;-76
2024/03/21 13:39:51;;;;;;;;;;;;;;;;;;4967265;28;89538;-76
2024/03/21 13:42:16;;;;;;;;;;;;;;;;;;4975264;28;89829;-76
2024/03/21 13:44:41;;;;;;;;;;;;;;;;;;4989554;28;89631;-76
2024/03/21 13:47:07;;;;;;;;;;;;;;;;;;4987416;28;90400;-77
2024/03/21 13:49:32;;;;;;;;;;;;;;;;;;4987574;28;89855;-75
2024/03/21 13:51:59;;;;;;;;;;;;;;;;;;4986184;28;93038;-75
2024/03/21 13:54:25;;;;;;;;;;;;;;;;;;4987350;28;89413;-75
2024/03/21 13:56:50;;;;;;;;;;;;;;;;;;4986335;28;90040;-77
2024/03/21 13:59:15;;;;;;;;;;;;;;;;;;4986800;28;89619;-76
2024/03/21 14:01:40;;;;;;;;;;;;;;;;;;4986406;28;89745;-77
2024/03/21 14:04:06;;;;;;;;;;;;;;;;;;4968038;28;89736;-77
2024/03/21 14:06:32;;;;;;;;;;;;;;;;;;4968746;28;89965;-76
2024/03/21 14:08:57;;;;;;;;;;;;;;;;;;4998632;28;92367;-77
2024/03/21 14:11:22;;;;;;;;;;;;;;;;;;4967394;28;89696;-76
2024/03/21 14:13:49;;;;;;;;;;;;;;;;;;4967632;28;89418;-77
2024/03/21 14:16:15;;;;;;;;;;;;;;;;;;4967512;28;89730;-77
2024/03/21 14:18:41;;;;;;;;;;;;;;;;;;4967436;28;89510;-77
2024/03/21 14:21:08;;;;;;;;;;;;;;;;;;4967626;28;89031;-76
2024/03/21 14:23:33;;;;;;;;;;;;;;;;;;4967381;28;90111;-78
2024/03/21 14:25:59;;;;;;;;;;;;;;;;;;4968745;28;90624;-76
2024/03/21 14:28:25;;;;;;;;;;;;;;;;;;4967236;28;90273;-77
2024/03/21 14:30:50;;;;;;;;;;;;;;;;;;4966687;28;89558;-76
2024/03/21 14:33:15;;;;;;;;;;;;;;;;;;4966676;28;89038;-77
2024/03/21 14:35:40;;;;;;;;;;;;;;;;;;4966713;28;89676;-74
2024/03/21 14:38:06;;;;;;;;;;;;;;;;;;4966879;28;89650;-75
2024/03/21 14:40:32;;;;;;;;;;;;;;;;;;4967528;28;89515;-74
2024/03/21 14:42:57;;;;;;;;;;;;;;;;;;4967165;28;90037;-76
2024/03/21 14:45:22;;;;;;;;;;;;;;;;;;4966156;28;90137;-74
2024/03/21 14:47:47;;;;;;;;;;;;;;;;;;4969626;28;89545;-75
2024/03/21 14:50:14;;;;;;;;;;;;;;;;;;4966008;28;89718;-74
2024/03/21 14:52:39;;;;;;;;;;;;;;;;;;4966078;28;89200;-76
2024/03/21 14:55:05;;;;;;;;;;;;;;;;;;4966267;28;89947;-75
2024/03/21 14:57:30;;;;;;;;;;;;;;;;;;4966402;28;89565;-74
2024/03/21 14:59:56;;;;;;;;;;;;;;;;;;4966128;28;89305;-75
2024/03/21 15:02:21;;;;;;;;;;;;;;;;;;4949452;28;89730;-75
2024/03/21 15:04:46;;;;;;;;;;;;;;;;;;4946473;28;89373;-74
2024/03/21 15:07:11;;;;;;;;;;;;;;;;;;4947287;28;89070;-78
2024/03/21 15:09:37;;;;;;;;;;;;;;;;;;4950059;28;90161;-76
2024/03/21 15:12:02;;;;;;;;;;;;;;;;;;4947104;28;89026;-75
2024/03/21 15:14:27;;;;;;;;;;;;;;;;;;4946686;28;90492;-76
2024/03/21 15:16:53;;;;;;;;;;;;;;;;;;4946661;28;90000;-77
2024/03/21 15:19:18;;;;;;;;;;;;;;;;;;4946314;28;89464;-75
2024/03/21 15:21:43;;;;;;;;;;;;;;;;;;4946516;28;89703;-77
2024/03/21 15:24:08;;;;;;;;;;;;;;;;;;4946022;28;89815;-77
2024/03/21 15:26:34;;;;;;;;;;;;;;;;;;4946258;28;89360;-77
2024/03/21 15:28:59;;;;;;;;;;;;;;;;;;4946512;28;89671;-76
2024/03/21 15:31:24;;;;;;;;;;;;;;;;;;4949502;28;89620;-77
2024/03/21 15:33:49;;;;;;;;;;;;;;;;;;4946053;28;89696;-76
2024/03/21 15:36:15;;;;;;;;;;;;;;;;;;4945593;28;90108;-77
2024/03/21 15:38:40;;;;;;;;;;;;;;;;;;4960681;28;90122;-76
2024/03/21 15:41:05;;;;;;;;;;;;;;;;;;4968837;28;89164;-77
2024/03/21 15:43:36;;;;;;;;;;;;;;;;;;4984809;28;89667;-77
2024/03/21 15:46:02;;;;;;;;;;;;;;;;;;4983765;28;91573;-78
2024/03/21 15:48:27;;;;;;;;;;;;;;;;;;4968726;28;90139;-78
2024/03/21 15:50:52;;;;;;;;;;;;;;;;;;4965286;28;89626;-78
2024/03/21 15:53:18;;;;;;;;;;;;;;;;;;4967287;28;89252;-79
2024/03/21 15:55:44;;;;;;;;;;;;;;;;;;4964800;28;89357;-77
2024/03/21 15:58:09;;;;;;;;;;;;;;;;;;4964801;28;89727;-77
2024/03/21 16:00:34;;;;;;;;;;;;;;;;;;4965675;28;89317;-75
2024/03/21 16:03:00;;;;;;;;;;;;;;;;;;4965674;28;89370;-74
2024/03/21 16:05:25;;;;;;;;;;;;;;;;;;4966069;28;89622;-76
2024/03/21 16:07:51;;;;;;;;;;;;;;;;;;4965209;28;89643;-76
2024/03/21 16:10:17;;;;;;;;;;;;;;;;;;4964841;28;89375;-77
2024/03/21 16:12:43;;;;;;;;;;;;;;;;;;4965193;28;89870;-74
2024/03/21 16:15:08;;;;;;;;;;;;;;;;;;4967867;28;89570;-77
2024/03/21 16:17:33;;;;;;;;;;;;;;;;;;4965783;28;89369;-75
2024/03/21 16:19:58;;;;;;;;;;;;;;;;;;4965862;28;89934;-76
2024/03/21 16:22:24;;;;;;;;;;;;;;;;;;4964501;28;89427;-75
2024/03/21 16:24:49;;;;;;;;;;;;;;;;;;4964577;28;89450;-77
2024/03/21 16:27:14;;;;;;;;;;;;;;;;;;4996011;28;90860;-76
2024/03/21 16:29:40;;;;;;;;;;;;;;;;;;4964413;28;89670;-75
2024/03/21 16:32:05;;;;;;;;;;;;;;;;;;4965316;28;89260;-76
2024/03/21 16:34:32;;;;;;;;;;;;;;;;;;4967861;28;89796;-76
2024/03/21 16:36:57;;;;;;;;;;;;;;;;;;4964962;28;89280;-75
2024/03/21 16:39:23;;;;;;;;;;;;;;;;;;4964987;28;89836;-76
2024/03/21 16:41:48;;;;;;;;;;;;;;;;;;4964589;28;89255;-74